createdAt,value
2023-04-26T00:00:50.195Z,6.4653
2023-04-26T00:01:51.434Z,6.4603
2023-04-26T00:02:51.374Z,6.4564
2023-04-26T00:03:52.626Z,6.4538
2023-04-26T00:04:53.985Z,6.4513
2023-04-26T00:05:55.039Z,6.4509
2023-04-26T00:06:55.858Z,6.4508
2023-04-26T00:07:56.513Z,6.4534
2023-04-26T00:08:57.150Z,6.4550
2023-04-26T00:09:57.924Z,6.4581
2023-04-26T00:10:58.543Z,6.4593
2023-04-26T00:11:59.199Z,6.4629
2023-04-26T00:13:00.147Z,6.4638
2023-04-26T00:14:00.738Z,6.4674
2023-04-26T00:15:01.820Z,6.4710
2023-04-26T00:16:02.595Z,6.4775
2023-04-26T00:17:03.507Z,6.4838
2023-04-26T00:18:04.317Z,6.4898
2023-04-26T00:19:05.819Z,6.4958
2023-04-26T00:20:06.433Z,6.5030
2023-04-26T00:21:07.131Z,6.5109
2023-04-26T00:22:07.647Z,6.5166
2023-04-26T00:23:08.443Z,6.5223
2023-04-26T00:24:09.294Z,6.5277
2023-04-26T00:25:09.806Z,6.5316
2023-04-26T00:26:10.676Z,6.5366
2023-04-26T00:27:11.000Z,6.5412
2023-04-26T00:28:11.454Z,6.5460
2023-04-26T00:29:12.328Z,6.5503
2023-04-26T00:31:13.032Z,6.5634
2023-04-26T00:32:13.688Z,6.5691
2023-04-26T00:33:14.839Z,6.5757
2023-04-26T00:34:15.322Z,6.5818
2023-04-26T00:35:16.100Z,6.5879
2023-04-26T00:36:16.837Z,6.5930
2023-04-26T00:37:17.271Z,6.5975
2023-04-26T00:38:18.602Z,6.6023
2023-04-26T00:39:19.505Z,6.6041
2023-04-26T00:40:19.731Z,6.6074
2023-04-26T00:41:19.800Z,6.6117
2023-04-26T00:42:21.493Z,6.6148
2023-04-26T00:43:21.871Z,6.6188
2023-04-26T00:44:24.422Z,6.6209
2023-04-26T00:46:24.728Z,6.6245
2023-04-26T00:47:25.405Z,6.6262
2023-04-26T00:48:26.205Z,6.6289
2023-04-26T00:49:26.723Z,6.6309
2023-04-26T00:50:27.526Z,6.6335
2023-04-26T00:51:28.138Z,6.6362
2023-04-26T00:52:28.870Z,6.6387
2023-04-26T00:53:29.664Z,6.6408
2023-04-26T00:54:30.211Z,6.6421
2023-04-26T00:55:32.310Z,6.6451
2023-04-26T00:57:32.175Z,6.6522
2023-04-26T00:58:32.310Z,6.6551
2023-04-26T00:59:35.110Z,6.6594
2023-04-26T01:00:35.601Z,6.6633
2023-04-26T01:01:36.130Z,6.6671
2023-04-26T01:02:36.745Z,6.6705
2023-04-26T01:03:37.505Z,6.6732
2023-04-26T01:04:38.158Z,6.6750
2023-04-26T01:05:39.867Z,6.6799
2023-04-26T01:06:39.835Z,6.6834
2023-04-26T01:07:40.433Z,6.6877
2023-04-26T01:08:41.095Z,6.6916
2023-04-26T01:09:41.929Z,6.6941
2023-04-26T01:10:42.752Z,6.6959
2023-04-26T01:11:43.608Z,6.6979
2023-04-26T01:12:44.296Z,6.6989
2023-04-26T01:13:44.879Z,6.6999
2023-04-26T01:14:45.253Z,6.7014
2023-04-26T01:15:45.991Z,6.7028
2023-04-26T01:16:47.128Z,6.7039
2023-04-26T01:17:48.321Z,6.7056
2023-04-26T01:18:49.221Z,6.7056
2023-04-26T01:19:48.687Z,6.7052
2023-04-26T01:20:48.659Z,6.7062
2023-04-26T01:21:52.254Z,6.7044
2023-04-26T01:22:52.349Z,6.6981
2023-04-26T01:23:52.599Z,6.6958
2023-04-26T01:24:52.844Z,6.6928
2023-04-26T01:25:53.557Z,6.6897
2023-04-26T01:26:53.840Z,6.6829
2023-04-26T01:27:54.335Z,6.6740
2023-04-26T01:29:54.657Z,6.6584
2023-04-26T01:30:55.473Z,6.6496
2023-04-26T01:31:56.408Z,6.6396
2023-04-26T01:32:57.206Z,6.6298
2023-04-26T01:33:57.985Z,6.6194
2023-04-26T01:34:58.654Z,6.6077
2023-04-26T01:35:59.392Z,6.5955
2023-04-26T01:37:00.302Z,6.5820
2023-04-26T01:38:00.851Z,6.5696
2023-04-26T01:39:01.528Z,6.5545
2023-04-26T01:40:02.327Z,6.5397
2023-04-26T01:41:02.912Z,6.5272
2023-04-26T01:42:03.721Z,6.5127
2023-04-26T01:43:04.330Z,6.4957
2023-04-26T01:44:05.312Z,6.4786
2023-04-26T01:45:06.117Z,6.4635
2023-04-26T01:46:06.871Z,6.4504
2023-04-26T01:47:07.080Z,6.4352
2023-04-26T01:48:08.124Z,6.4204
2023-04-26T01:49:08.392Z,6.4043
2023-04-26T01:50:08.630Z,6.3902
2023-04-26T01:51:10.344Z,6.3751
2023-04-26T01:52:09.944Z,6.3581
2023-04-26T01:53:10.649Z,6.3415
2023-04-26T01:54:11.480Z,6.3242
2023-04-26T01:55:12.271Z,6.3089
2023-04-26T01:56:12.975Z,6.2917
2023-04-26T01:57:13.692Z,6.2753
2023-04-26T01:58:14.214Z,6.2613
2023-04-26T01:59:15.381Z,6.2468
2023-04-26T02:00:15.968Z,6.2336
2023-04-26T02:01:16.619Z,6.2201
2023-04-26T02:02:17.676Z,6.2074
2023-04-26T02:03:17.917Z,6.1937
2023-04-26T02:04:18.732Z,6.1806
2023-04-26T02:05:19.534Z,6.1611
2023-04-26T02:06:20.637Z,6.1454
2023-04-26T02:07:21.423Z,6.1330
2023-04-26T02:08:22.145Z,6.1215
2023-04-26T02:09:23.218Z,6.1097
2023-04-26T02:10:24.027Z,6.0969
2023-04-26T02:11:24.494Z,6.0851
2023-04-26T02:12:25.695Z,6.0743
2023-04-26T02:13:26.807Z,6.0630
2023-04-26T02:14:26.500Z,6.0511
2023-04-26T02:15:27.201Z,6.0400
2023-04-26T02:16:28.703Z,6.0271
2023-04-26T02:17:29.634Z,6.0185
2023-04-26T02:18:30.924Z,6.0038
2023-04-26T02:19:31.379Z,5.9987
2023-04-26T02:20:32.026Z,5.9912
2023-04-26T02:21:32.343Z,5.9837
2023-04-26T02:22:33.051Z,5.9757
2023-04-26T02:23:33.740Z,5.9669
2023-04-26T02:24:34.239Z,5.9602
2023-04-26T02:25:35.418Z,5.9526
2023-04-26T02:26:35.344Z,5.9469
2023-04-26T02:27:36.670Z,5.9414
2023-04-26T02:28:37.560Z,5.9363
2023-04-26T02:30:38.498Z,5.9253
2023-04-26T02:31:39.520Z,5.9228
2023-04-26T02:32:39.648Z,5.9190
2023-04-26T02:33:40.213Z,5.9151
2023-04-26T02:34:41.082Z,5.9119
2023-04-26T02:35:41.085Z,5.9059
2023-04-26T02:36:41.629Z,5.8997
2023-04-26T02:37:42.108Z,5.8935
2023-04-26T02:38:42.568Z,5.8884
2023-04-26T02:39:43.664Z,5.8832
2023-04-26T02:40:45.020Z,5.8778
2023-04-26T02:41:49.112Z,5.8711
2023-04-26T02:43:48.401Z,5.8550
2023-04-26T02:44:49.074Z,5.8492
2023-04-26T02:45:49.788Z,5.8431
2023-04-26T02:46:50.372Z,5.8384
2023-04-26T02:47:51.675Z,5.8344
2023-04-26T02:48:51.947Z,5.8334
2023-04-26T02:49:53.609Z,5.8330
2023-04-26T02:51:55.798Z,5.8378
2023-04-26T02:53:55.708Z,5.8434
2023-04-26T02:54:57.125Z,5.8455
2023-04-26T02:56:08.052Z,5.8531
2023-04-26T02:57:09.240Z,5.8606
2023-04-26T02:58:10.464Z,5.8736
2023-04-26T02:59:11.278Z,5.8842
2023-04-26T03:01:14.476Z,5.9097
2023-04-26T03:02:15.937Z,5.9244
2023-04-26T03:04:16.127Z,5.9457
2023-04-26T03:05:15.777Z,5.9576
2023-04-26T03:06:17.069Z,5.9691
2023-04-26T03:07:17.804Z,5.9815
2023-04-26T03:08:19.079Z,5.9936
2023-04-26T03:09:19.636Z,6.0050
2023-04-26T03:10:20.430Z,6.0148
2023-04-26T03:11:21.145Z,6.0247
2023-04-26T03:12:21.783Z,6.0368
2023-04-26T03:13:22.657Z,6.0478
2023-04-26T03:14:23.419Z,6.0574
2023-04-26T03:15:24.150Z,6.0674
2023-04-26T03:16:25.070Z,6.0773
2023-04-26T03:17:26.225Z,6.0863
2023-04-26T03:18:26.420Z,6.0957
2023-04-26T03:19:27.404Z,6.1051
2023-04-26T03:20:28.519Z,6.1167
2023-04-26T03:21:29.372Z,6.1283
2023-04-26T03:22:29.862Z,6.1380
2023-04-26T03:23:30.723Z,6.1472
2023-04-26T03:24:31.167Z,6.1566
2023-04-26T03:25:32.966Z,6.1665
2023-04-26T03:26:33.236Z,6.1755
2023-04-26T03:27:33.181Z,6.1833
2023-04-26T03:28:33.236Z,6.1883
2023-04-26T03:29:33.768Z,6.1944
2023-04-26T03:30:34.480Z,6.2009
2023-04-26T03:31:35.207Z,6.2087
2023-04-26T03:32:35.247Z,6.2153
2023-04-26T03:33:35.913Z,6.2233
2023-04-26T03:34:36.860Z,6.2281
2023-04-26T03:35:37.722Z,6.2340
2023-04-26T03:36:38.431Z,6.2405
2023-04-26T03:37:39.132Z,6.2440
2023-04-26T03:38:39.225Z,6.2480
2023-04-26T03:39:39.985Z,6.2515
2023-04-26T03:40:40.842Z,6.2531
2023-04-26T03:41:41.742Z,6.2547
2023-04-26T03:42:42.735Z,6.2575
2023-04-26T03:43:43.753Z,6.2557
2023-04-26T03:44:44.765Z,6.2564
2023-04-26T03:46:46.332Z,6.2629
2023-04-26T03:47:47.585Z,6.2642
2023-04-26T03:51:09.841Z,6.2636
2023-04-26T03:51:49.544Z,6.2526
2023-04-26T03:52:50.360Z,6.2484
2023-04-26T03:53:50.661Z,6.2438
2023-04-26T03:55:10.892Z,6.2368
2023-04-26T03:55:51.638Z,6.2192
2023-04-26T03:56:51.550Z,6.2087
2023-04-26T03:57:52.393Z,6.2006
2023-04-26T03:58:53.794Z,6.1868
2023-04-26T03:59:55.121Z,6.1736
2023-04-26T04:01:55.839Z,6.1477
2023-04-26T04:02:56.152Z,6.1362
2023-04-26T04:03:56.724Z,6.1236
2023-04-26T04:06:57.850Z,6.0969
2023-04-26T04:07:57.640Z,6.0881
2023-04-26T04:08:58.933Z,6.0815
2023-04-26T04:10:00.677Z,6.0752
2023-04-26T04:11:00.216Z,6.0699
2023-04-26T04:12:01.344Z,6.0655
2023-04-26T04:13:02.399Z,6.0618
2023-04-26T04:14:02.635Z,6.0585
2023-04-26T04:15:03.096Z,6.0564
2023-04-26T04:16:05.169Z,6.0547
2023-04-26T04:17:04.352Z,6.0548
2023-04-26T04:18:06.196Z,6.0568
2023-04-26T04:19:07.452Z,6.0576
2023-04-26T04:20:07.036Z,6.0595
2023-04-26T04:21:07.790Z,6.0634
2023-04-26T04:22:08.514Z,6.0659
2023-04-26T04:23:09.280Z,6.0682
2023-04-26T04:24:10.633Z,6.0679
2023-04-26T04:25:11.746Z,6.0700
2023-04-26T04:26:12.361Z,6.0720
2023-04-26T04:27:12.993Z,6.0748
2023-04-26T04:28:13.245Z,6.0786
2023-04-26T04:29:14.890Z,6.0839
2023-04-26T04:31:15.815Z,6.0961
2023-04-26T04:32:16.539Z,6.1023
2023-04-26T04:33:16.718Z,6.1092
2023-04-26T04:34:17.845Z,6.1154
2023-04-26T04:36:18.474Z,6.1291
2023-04-26T04:37:18.832Z,6.1374
2023-04-26T04:38:20.064Z,6.1472
2023-04-26T04:39:21.007Z,6.1570
2023-04-26T04:40:21.340Z,6.1712
2023-04-26T04:41:43.477Z,6.1852
2023-04-26T04:42:21.882Z,6.1932
2023-04-26T04:43:23.459Z,6.2061
2023-04-26T04:44:24.559Z,6.2173
2023-04-26T04:45:25.098Z,6.2302
2023-04-26T04:46:25.900Z,6.2422
2023-04-26T04:47:28.514Z,6.2538
2023-04-26T04:50:29.404Z,6.2938
2023-04-26T04:52:28.822Z,6.3204
2023-04-26T04:53:29.388Z,6.3331
2023-04-26T04:54:31.138Z,6.3457
2023-04-26T04:55:30.823Z,6.3599
2023-04-26T04:56:32.046Z,6.3715
2023-04-26T04:58:32.395Z,6.3936
2023-04-26T04:59:33.364Z,6.4052
2023-04-26T05:00:35.026Z,6.4176
2023-04-26T05:01:36.184Z,6.4267
2023-04-26T05:02:36.568Z,6.4354
2023-04-26T05:03:38.000Z,6.4468
2023-04-26T05:04:38.226Z,6.4570
2023-04-26T05:05:38.344Z,6.4705
2023-04-26T05:06:39.380Z,6.4840
2023-04-26T05:07:40.026Z,6.4979
2023-04-26T05:08:41.169Z,6.5127
2023-04-26T05:09:42.735Z,6.5271
2023-04-26T05:10:42.872Z,6.5417
2023-04-26T05:11:43.988Z,6.5566
2023-04-26T05:19:53.371Z,6.6569
2023-04-26T05:20:54.137Z,6.6699
2023-04-26T05:21:55.349Z,6.6857
2023-04-26T05:22:56.022Z,6.6994
2023-04-26T05:23:56.226Z,6.7116
2023-04-26T05:24:57.285Z,6.7228
2023-04-26T05:25:57.929Z,6.7327
2023-04-26T05:26:58.636Z,6.7410
2023-04-26T05:27:59.198Z,6.7496
2023-04-26T05:29:00.121Z,6.7572
2023-04-26T05:30:00.811Z,6.7639
2023-04-26T05:31:01.995Z,6.7721
2023-04-26T05:32:03.244Z,6.7814
2023-04-26T05:33:03.264Z,6.7892
2023-04-26T05:34:03.910Z,6.7988
2023-04-26T05:35:04.505Z,6.8089
2023-04-26T05:36:04.851Z,6.8247
2023-04-26T05:37:05.281Z,6.8382
2023-04-26T05:38:06.042Z,6.8514
2023-04-26T05:39:06.618Z,6.8647
2023-04-26T05:40:07.633Z,6.8768
2023-04-26T05:41:08.322Z,6.8880
2023-04-26T05:42:08.661Z,6.8980
2023-04-26T05:43:09.702Z,6.9084
2023-04-26T05:44:10.279Z,6.9189
2023-04-26T05:45:10.997Z,6.9300
2023-04-26T05:46:12.149Z,6.9421
2023-04-26T05:47:13.428Z,6.9576
2023-04-26T05:48:14.266Z,6.9768
2023-04-26T05:49:14.964Z,6.9995
2023-04-26T05:50:15.549Z,7.0217
2023-04-26T05:51:16.682Z,7.0436
2023-04-26T05:52:17.321Z,7.0657
2023-04-26T05:53:17.808Z,7.0836
2023-04-26T05:54:18.198Z,7.0984
2023-04-26T05:55:18.874Z,7.1126
2023-04-26T05:56:19.549Z,7.1238
2023-04-26T05:57:19.782Z,7.1316
2023-04-26T05:58:20.341Z,7.1405
2023-04-26T05:59:21.175Z,7.1518
2023-04-26T06:00:21.906Z,7.1642
2023-04-26T06:01:22.714Z,7.1773
2023-04-26T06:02:24.217Z,7.1912
2023-04-26T06:03:24.265Z,7.2016
2023-04-26T06:04:25.156Z,7.2076
2023-04-26T06:05:25.178Z,7.2171
2023-04-26T06:06:25.851Z,7.2270
2023-04-26T06:07:26.465Z,7.2357
2023-04-26T06:08:27.077Z,7.2441
2023-04-26T06:09:27.238Z,7.2549
2023-04-26T06:10:28.036Z,7.2648
2023-04-26T06:11:28.757Z,7.2771
2023-04-26T06:12:29.513Z,7.2943
2023-04-26T06:13:30.237Z,7.3190
2023-04-26T06:14:31.119Z,7.3480
2023-04-26T06:15:32.163Z,7.3778
2023-04-26T06:16:32.942Z,7.4062
2023-04-26T06:17:34.155Z,7.4291
2023-04-26T06:18:35.165Z,7.4514
2023-04-26T06:19:35.721Z,7.4755
2023-04-26T06:20:36.494Z,7.4948
2023-04-26T06:21:37.319Z,7.5091
2023-04-26T06:22:37.981Z,7.5203
2023-04-26T06:23:39.215Z,7.5307
2023-04-26T06:24:39.798Z,7.5360
2023-04-26T06:25:40.607Z,7.5394
2023-04-26T06:26:41.530Z,7.5405
2023-04-26T06:27:42.153Z,7.5428
2023-04-26T06:28:42.896Z,7.5422
2023-04-26T06:29:43.728Z,7.5456
2023-04-26T06:30:44.637Z,7.5537
2023-04-26T06:31:45.633Z,7.5666
2023-04-26T06:32:46.762Z,7.5852
2023-04-26T06:33:47.419Z,7.6081
2023-04-26T06:34:48.607Z,7.6305
2023-04-26T06:35:49.107Z,7.6550
2023-04-26T06:36:49.760Z,7.6796
2023-04-26T06:37:50.939Z,7.7024
2023-04-26T06:38:51.520Z,7.7248
2023-04-26T06:39:52.329Z,7.7482
2023-04-26T06:40:53.206Z,7.7725
2023-04-26T06:41:53.757Z,7.7980
2023-04-26T06:42:54.476Z,7.8283
2023-04-26T06:43:55.412Z,7.8609
2023-04-26T06:44:55.232Z,7.8951
2023-04-26T06:45:55.203Z,7.9280
2023-04-26T06:46:56.032Z,7.9612
2023-04-26T06:47:57.191Z,7.9931
2023-04-26T06:48:57.984Z,8.0195
2023-04-26T06:49:58.639Z,8.0400
2023-04-26T06:50:59.298Z,8.0564
2023-04-26T06:51:59.936Z,8.0724
2023-04-26T06:53:01.185Z,8.0898
2023-04-26T06:54:01.914Z,8.1064
2023-04-26T06:55:03.427Z,8.1205
2023-04-26T06:56:04.019Z,8.1329
2023-04-26T06:57:04.634Z,8.1448
2023-04-26T06:58:05.130Z,8.1558
2023-04-26T06:59:05.838Z,8.1706
2023-04-26T07:00:06.563Z,8.1896
2023-04-26T07:01:07.033Z,8.2097
2023-04-26T07:02:08.136Z,8.2297
2023-04-26T07:03:08.707Z,8.2477
2023-04-26T07:04:09.964Z,8.2614
2023-04-26T07:05:11.019Z,8.2720
2023-04-26T07:06:12.252Z,8.2782
2023-04-26T07:07:13.762Z,8.2826
2023-04-26T07:08:13.420Z,8.2916
2023-04-26T07:09:14.100Z,8.3055
2023-04-26T07:10:14.796Z,8.3186
2023-04-26T07:11:15.473Z,8.3330
2023-04-26T07:12:16.464Z,8.3430
2023-04-26T07:13:17.090Z,8.3523
2023-04-26T07:14:17.764Z,8.3589
2023-04-26T07:15:18.731Z,8.3688
2023-04-26T07:16:19.483Z,8.3819
2023-04-26T07:17:20.418Z,8.3993
2023-04-26T07:18:21.276Z,8.4237
2023-04-26T07:19:21.935Z,8.4459
2023-04-26T07:20:22.498Z,8.4608
2023-04-26T07:21:23.231Z,8.4750
2023-04-26T07:22:23.855Z,8.4956
2023-04-26T07:23:24.580Z,8.5211
2023-04-26T07:24:25.297Z,8.5439
2023-04-26T07:25:25.747Z,8.5668
2023-04-26T07:26:26.658Z,8.5821
2023-04-26T07:27:26.403Z,8.5894
2023-04-26T07:28:26.877Z,8.6051
2023-04-26T07:29:27.614Z,8.6421
2023-04-26T07:30:28.459Z,8.6865
2023-04-26T07:31:28.786Z,8.7274
2023-04-26T07:32:29.740Z,8.7517
2023-04-26T07:33:31.662Z,8.7734
2023-04-26T07:34:31.931Z,8.7965
2023-04-26T07:35:32.901Z,8.8209
2023-04-26T07:36:33.299Z,8.8500
2023-04-26T07:37:33.775Z,8.8823
2023-04-26T07:38:34.359Z,8.9184
2023-04-26T07:39:34.815Z,8.9529
2023-04-26T07:40:35.770Z,8.9822
2023-04-26T07:41:36.683Z,9.0058
2023-04-26T07:42:37.834Z,9.0323
2023-04-26T07:43:38.633Z,9.0592
2023-04-26T07:44:39.081Z,9.1008
2023-04-26T07:45:39.819Z,9.1441
2023-04-26T07:46:40.885Z,9.1812
2023-04-26T07:47:41.374Z,9.2106
2023-04-26T07:48:42.125Z,9.2275
2023-04-26T07:49:42.677Z,9.2303
2023-04-26T07:50:43.309Z,9.2279
2023-04-26T07:51:44.082Z,9.2274
2023-04-26T07:52:44.534Z,9.2291
2023-04-26T07:53:45.188Z,9.2274
2023-04-26T07:54:45.442Z,9.2206
2023-04-26T07:55:45.927Z,9.2155
2023-04-26T07:56:46.682Z,9.2104
2023-04-26T07:57:47.193Z,9.2141
2023-04-26T07:58:47.881Z,9.2286
2023-04-26T07:59:48.660Z,9.2434
2023-04-26T08:00:49.116Z,9.2559
2023-04-26T08:01:49.852Z,9.2663
2023-04-26T08:02:50.947Z,9.2595
2023-04-26T08:03:51.381Z,9.2363
2023-04-26T08:04:52.463Z,9.2121
2023-04-26T08:05:53.369Z,9.1869
2023-04-26T08:06:53.328Z,9.1667
2023-04-26T08:07:53.868Z,9.1433
2023-04-26T08:08:54.585Z,9.1129
2023-04-26T08:09:55.507Z,9.0751
2023-04-26T08:10:56.042Z,9.0344
2023-04-26T08:11:56.895Z,8.9969
2023-04-26T08:12:57.632Z,8.9617
2023-04-26T08:13:57.892Z,8.9349
2023-04-26T08:14:58.509Z,8.9215
2023-04-26T08:15:59.437Z,8.9178
2023-04-26T08:17:00.269Z,8.9209
2023-04-26T08:18:00.476Z,8.9293
2023-04-26T08:19:01.422Z,8.9385
2023-04-26T08:20:02.203Z,8.9441
2023-04-26T08:21:02.807Z,8.9393
2023-04-26T08:22:03.438Z,8.9281
2023-04-26T08:23:04.169Z,8.9188
2023-04-26T08:24:05.335Z,8.9146
2023-04-26T08:25:06.092Z,8.9169
2023-04-26T08:26:06.796Z,8.9213
2023-04-26T08:27:07.350Z,8.9243
2023-04-26T08:28:08.132Z,8.9217
2023-04-26T08:29:08.812Z,8.9146
2023-04-26T08:30:09.702Z,8.9009
2023-04-26T08:31:09.948Z,8.8843
2023-04-26T08:32:10.843Z,8.8705
2023-04-26T08:33:11.908Z,8.8567
2023-04-26T08:34:12.656Z,8.8360
2023-04-26T08:35:13.164Z,8.8152
2023-04-26T08:36:13.821Z,8.8032
2023-04-26T08:37:14.261Z,8.7967
2023-04-26T08:38:14.915Z,8.7901
2023-04-26T08:39:15.675Z,8.7870
2023-04-26T08:40:16.338Z,8.7855
2023-04-26T08:41:17.057Z,8.7889
2023-04-26T08:42:17.730Z,8.7943
2023-04-26T08:43:18.367Z,8.8025
2023-04-26T08:44:19.062Z,8.8158
2023-04-26T08:45:19.551Z,8.8361
2023-04-26T08:46:20.272Z,8.8514
2023-04-26T08:47:21.133Z,8.8618
2023-04-26T08:48:22.344Z,8.8656
2023-04-26T08:49:23.042Z,8.8621
2023-04-26T08:50:23.811Z,8.8522
2023-04-26T08:51:24.364Z,8.8431
2023-04-26T08:52:24.725Z,8.8320
2023-04-26T08:53:25.270Z,8.8197
2023-04-26T08:54:26.042Z,8.8100
2023-04-26T08:55:26.677Z,8.8032
2023-04-26T08:56:27.138Z,8.7952
2023-04-26T08:57:27.879Z,8.7902
2023-04-26T08:58:28.573Z,8.7856
2023-04-26T08:59:29.039Z,8.7797
2023-04-26T09:00:29.772Z,8.7742
2023-04-26T09:01:30.337Z,8.7676
2023-04-26T09:02:31.102Z,8.7589
2023-04-26T09:03:31.658Z,8.7506
2023-04-26T09:04:32.503Z,8.7390
2023-04-26T09:05:33.268Z,8.7269
2023-04-26T09:06:34.258Z,8.7185
2023-04-26T09:07:34.944Z,8.7170
2023-04-26T09:08:35.627Z,8.7225
2023-04-26T09:09:36.615Z,8.7356
2023-04-26T09:10:37.427Z,8.7559
2023-04-26T09:11:38.128Z,8.7863
2023-04-26T09:12:38.696Z,8.8234
2023-04-26T09:13:39.452Z,8.8691
2023-04-26T09:14:39.985Z,8.9180
2023-04-26T09:15:40.810Z,8.9695
2023-04-26T09:16:42.031Z,9.0265
2023-04-26T09:17:42.864Z,9.0890
2023-04-26T09:18:44.152Z,9.1489
2023-04-26T09:19:44.933Z,9.2066
2023-04-26T09:20:45.271Z,9.2659
2023-04-26T09:21:45.993Z,9.3233
2023-04-26T09:22:46.701Z,9.3725
2023-04-26T09:23:47.279Z,9.4263
2023-04-26T09:24:48.035Z,9.4775
2023-04-26T09:25:48.579Z,9.5274
2023-04-26T09:26:49.326Z,9.5827
2023-04-26T09:27:49.966Z,9.6387
2023-04-26T09:28:50.663Z,9.6937
2023-04-26T09:29:51.027Z,9.7535
2023-04-26T09:30:51.512Z,9.8152
2023-04-26T09:31:52.943Z,9.8757
2023-04-26T09:32:53.834Z,9.9555
2023-04-26T09:33:54.903Z,10.0535
2023-04-26T09:34:55.530Z,10.1634
2023-04-26T09:35:56.142Z,10.2707
2023-04-26T09:36:56.625Z,10.3734
2023-04-26T09:38:01.123Z,10.4663
2023-04-26T09:38:58.552Z,10.5592
2023-04-26T09:39:59.247Z,10.6425
2023-04-26T09:40:59.967Z,10.7305
2023-04-26T09:42:00.446Z,10.8169
2023-04-26T09:43:01.162Z,10.8969
2023-04-26T09:44:01.997Z,10.9712
2023-04-26T09:45:02.651Z,11.0405
2023-04-26T09:46:03.384Z,11.1051
2023-04-26T09:47:04.382Z,11.1600
2023-04-26T09:48:04.306Z,11.2021
2023-04-26T09:49:04.453Z,11.2427
2023-04-26T09:50:05.137Z,11.2865
2023-04-26T09:51:05.901Z,11.3317
2023-04-26T09:52:06.606Z,11.3836
2023-04-26T09:53:07.083Z,11.4280
2023-04-26T09:54:07.740Z,11.4660
2023-04-26T09:55:09.177Z,11.5020
2023-04-26T09:56:08.556Z,11.5193
2023-04-26T09:57:09.450Z,11.5324
2023-04-26T09:58:09.953Z,11.5437
2023-04-26T09:59:10.171Z,11.5472
2023-04-26T10:00:10.806Z,11.5506
2023-04-26T10:01:11.458Z,11.5513
2023-04-26T10:02:12.368Z,11.5450
2023-04-26T10:03:14.173Z,11.5282
2023-04-26T10:04:14.545Z,11.5006
2023-04-26T10:05:15.506Z,11.4714
2023-04-26T10:06:16.181Z,11.4469
2023-04-26T10:07:16.638Z,11.4295
2023-04-26T10:08:17.388Z,11.4184
2023-04-26T10:09:18.500Z,11.4039
2023-04-26T10:10:19.273Z,11.3875
2023-04-26T10:11:20.025Z,11.3699
2023-04-26T10:12:20.763Z,11.3507
2023-04-26T10:13:21.434Z,11.3301
2023-04-26T10:14:22.187Z,11.3068
2023-04-26T10:15:22.752Z,11.2854
2023-04-26T10:16:23.510Z,11.2693
2023-04-26T10:17:24.354Z,11.2612
2023-04-26T10:18:25.156Z,11.2614
2023-04-26T10:19:25.986Z,11.2641
2023-04-26T10:20:26.689Z,11.2680
2023-04-26T10:21:27.438Z,11.2698
2023-04-26T10:22:28.082Z,11.2677
2023-04-26T10:23:28.588Z,11.2585
2023-04-26T10:24:29.433Z,11.2439
2023-04-26T10:25:29.990Z,11.2379
2023-04-26T10:26:30.667Z,11.2428
2023-04-26T10:27:31.393Z,11.2616
2023-04-26T10:28:32.001Z,11.2940
2023-04-26T10:29:32.635Z,11.3370
2023-04-26T10:30:33.401Z,11.3960
2023-04-26T10:31:34.152Z,11.4580
2023-04-26T10:32:35.162Z,11.5281
2023-04-26T10:33:36.479Z,11.6044
2023-04-26T10:34:37.064Z,11.6848
2023-04-26T10:35:37.924Z,11.7575
2023-04-26T10:36:38.387Z,11.8249
2023-04-26T10:37:39.004Z,11.9007
2023-04-26T10:38:39.960Z,11.9808
2023-04-26T10:40:45.821Z,12.1844
2023-04-26T10:41:46.796Z,12.2857
2023-04-26T10:42:47.786Z,12.3938
2023-04-26T10:43:48.507Z,12.5103
2023-04-26T10:44:49.623Z,12.6271
2023-04-26T10:45:50.407Z,12.7292
2023-04-26T10:47:51.131Z,12.9022
2023-04-26T10:48:52.088Z,12.9765
2023-04-26T10:49:52.250Z,13.0496
2023-04-26T10:50:52.882Z,13.1200
2023-04-26T10:51:53.585Z,13.1909
2023-04-26T10:52:54.128Z,13.2509
2023-04-26T10:53:55.570Z,13.3004
2023-04-26T10:54:55.467Z,13.3503
2023-04-26T10:55:56.088Z,13.4008
2023-04-26T10:56:56.785Z,13.4548
2023-04-26T10:57:57.610Z,13.5113
2023-04-26T10:58:58.237Z,13.5635
2023-04-26T10:59:59.064Z,13.6099
2023-04-26T11:01:00.091Z,13.6636
2023-04-26T11:02:00.151Z,13.7088
2023-04-26T11:03:01.301Z,13.7420
2023-04-26T11:04:02.537Z,13.7633
2023-04-26T11:05:03.578Z,13.7788
2023-04-26T11:06:04.196Z,13.7963
2023-04-26T11:07:05.197Z,13.8127
2023-04-26T11:08:05.722Z,13.8321
2023-04-26T11:09:06.754Z,13.8518
2023-04-26T11:10:07.534Z,13.8647
2023-04-26T11:11:08.025Z,13.8622
2023-04-26T11:12:08.645Z,13.8256
2023-04-26T11:13:09.311Z,13.7692
2023-04-26T11:14:09.923Z,13.7236
2023-04-26T11:15:10.663Z,13.6731
2023-04-26T11:16:11.592Z,13.6120
2023-04-26T11:17:12.646Z,13.5388
2023-04-26T11:18:13.529Z,13.4643
2023-04-26T11:19:14.196Z,13.4118
2023-04-26T11:20:14.982Z,13.3701
2023-04-26T11:21:15.797Z,13.3315
2023-04-26T11:22:16.606Z,13.3164
2023-04-26T11:23:17.237Z,13.3299
2023-04-26T11:24:17.695Z,13.3770
2023-04-26T11:25:18.365Z,13.4419
2023-04-26T11:26:19.084Z,13.5296
2023-04-26T11:27:19.562Z,13.6356
2023-04-26T11:28:20.333Z,13.7663
2023-04-26T11:29:20.816Z,13.9033
2023-04-26T11:30:21.460Z,14.0108
2023-04-26T11:31:22.819Z,14.0713
2023-04-26T11:32:23.853Z,14.1179
2023-04-26T11:33:24.817Z,14.1653
2023-04-26T11:34:25.450Z,14.2223
2023-04-26T11:35:25.942Z,14.2976
2023-04-26T11:36:26.585Z,14.3887
2023-04-26T11:37:27.048Z,14.4962
2023-04-26T11:38:27.628Z,14.6127
2023-04-26T11:39:28.712Z,14.7268
2023-04-26T11:40:29.216Z,14.8523
2023-04-26T11:41:29.920Z,14.9641
2023-04-26T11:42:30.625Z,15.0588
2023-04-26T11:43:31.260Z,15.1435
2023-04-26T11:44:32.459Z,15.2188
2023-04-26T11:45:32.987Z,15.2967
2023-04-26T11:46:33.734Z,15.3825
2023-04-26T11:47:34.634Z,15.4634
2023-04-26T11:48:35.419Z,15.5326
2023-04-26T11:49:36.245Z,15.5812
2023-04-26T11:50:36.932Z,15.6100
2023-04-26T11:51:37.673Z,15.6175
2023-04-26T11:52:38.255Z,15.6047
2023-04-26T11:53:38.747Z,15.5664
2023-04-26T11:54:39.731Z,15.5312
2023-04-26T11:55:40.446Z,15.5038
2023-04-26T11:56:41.018Z,15.4865
2023-04-26T11:57:41.810Z,15.4852
2023-04-26T11:58:42.808Z,15.5005
2023-04-26T11:59:43.944Z,15.5250
2023-04-26T12:00:43.769Z,15.5508
2023-04-26T12:01:44.691Z,15.5751
2023-04-26T12:02:46.015Z,15.6057
2023-04-26T12:03:47.354Z,15.6416
2023-04-26T12:04:47.987Z,15.6804
2023-04-26T12:05:48.268Z,15.7212
2023-04-26T12:06:49.286Z,15.7606
2023-04-26T12:07:50.266Z,15.7990
2023-04-26T12:08:51.506Z,15.8283
2023-04-26T12:09:52.092Z,15.8360
2023-04-26T12:10:52.273Z,15.7911
2023-04-26T12:11:52.738Z,15.7137
2023-04-26T12:12:53.909Z,15.6323
2023-04-26T12:13:54.632Z,15.5699
2023-04-26T12:14:55.274Z,15.5132
2023-04-26T12:15:55.399Z,15.4469
2023-04-26T12:16:55.861Z,15.3835
2023-04-26T12:17:56.242Z,15.3246
2023-04-26T12:18:56.283Z,15.2658
2023-04-26T12:19:57.129Z,15.2187
2023-04-26T12:20:57.981Z,15.1968
2023-04-26T12:21:58.013Z,15.1859
2023-04-26T12:22:58.837Z,15.1792
2023-04-26T12:23:59.588Z,15.1721
2023-04-26T12:25:00.485Z,15.1703
2023-04-26T12:26:01.257Z,15.1734
2023-04-26T12:27:02.668Z,15.1781
2023-04-26T12:28:02.550Z,15.1816
2023-04-26T12:29:03.468Z,15.1759
2023-04-26T12:30:04.205Z,15.1701
2023-04-26T12:31:05.060Z,15.1658
2023-04-26T12:32:05.650Z,15.1764
2023-04-26T12:33:16.400Z,15.2003
2023-04-26T12:34:06.437Z,15.2360
2023-04-26T12:35:07.131Z,15.2772
2023-04-26T12:36:07.812Z,15.2935
2023-04-26T12:37:08.353Z,15.2713
2023-04-26T12:38:09.003Z,15.2453
2023-04-26T12:39:09.487Z,15.2365
2023-04-26T12:40:09.584Z,15.2390
2023-04-26T12:41:10.260Z,15.2471
2023-04-26T12:42:10.966Z,15.2697
2023-04-26T12:43:11.744Z,15.2985
2023-04-26T12:44:12.458Z,15.3322
2023-04-26T12:45:12.964Z,15.3593
2023-04-26T12:46:13.919Z,15.3718
2023-04-26T12:47:14.850Z,15.3741
2023-04-26T12:48:15.975Z,15.3829
2023-04-26T12:49:16.136Z,15.3755
2023-04-26T12:50:18.549Z,15.3571
2023-04-26T12:51:17.049Z,15.3378
2023-04-26T12:52:17.733Z,15.3439
2023-04-26T12:53:18.570Z,15.3858
2023-04-26T12:54:19.457Z,15.4332
2023-04-26T12:55:20.152Z,15.4751
2023-04-26T12:56:20.340Z,15.5362
2023-04-26T12:57:21.186Z,15.5998
2023-04-26T12:58:21.811Z,15.7028
2023-04-26T12:59:22.434Z,15.8709
2023-04-26T13:00:23.186Z,16.0412
2023-04-26T13:01:24.055Z,16.3000
2023-04-26T13:02:25.117Z,16.5633
2023-04-26T13:03:25.973Z,16.7758